createdAt,value
2018-02-21T00:00:08.942Z,52.45
2018-02-21T00:02:35.762Z,48.28
2018-02-21T00:05:02.710Z,45.90
2018-02-21T00:07:29.542Z,44.72
2018-02-21T00:09:56.410Z,43.30
2018-02-21T00:12:23.259Z,44.42
2018-02-21T00:14:50.126Z,46.13
2018-02-21T00:17:16.944Z,37.35
2018-02-21T00:19:43.738Z,47.38
2018-02-21T00:22:12.125Z,31.62
2018-02-21T00:24:38.978Z,45.08
2018-02-21T00:27:05.842Z,44.92
2018-02-21T00:29:32.666Z,43.15
2018-02-21T00:31:59.510Z,45.17
2018-02-21T00:34:26.354Z,38.30
2018-02-21T00:36:53.167Z,36.35
2018-02-21T00:39:20.722Z,37.17
2018-02-21T00:41:47.594Z,37.70
2018-02-21T00:44:15.155Z,33.08
2018-02-21T00:46:41.998Z,36.55
2018-02-21T00:49:08.848Z,33.95
2018-02-21T00:51:35.661Z,36.38
2018-02-21T00:54:03.230Z,40.33
2018-02-21T00:56:30.110Z,31.10
2018-02-21T00:58:56.961Z,37.40
2018-02-21T01:01:23.794Z,32.97
2018-02-21T01:03:50.630Z,33.80
2018-02-21T01:06:17.471Z,35.92
2018-02-21T01:08:44.325Z,36.08
2018-02-21T01:11:11.142Z,39.17
2018-02-21T01:13:38.699Z,42.45
2018-02-21T01:16:05.597Z,33.78
2018-02-21T01:18:32.421Z,38.70
2018-02-21T01:20:59.237Z,50.53
2018-02-21T01:23:26.090Z,43.75
2018-02-21T01:25:52.918Z,43.45
2018-02-21T01:28:20.468Z,48.35
2018-02-21T01:30:47.307Z,52.47
2018-02-21T01:33:14.137Z,44.05
2018-02-21T01:35:41.725Z,44.35
2018-02-21T01:38:08.582Z,45.60
2018-02-21T01:40:35.398Z,38.72
2018-02-21T01:43:02.958Z,34.90
2018-02-21T01:45:30.539Z,38.33
2018-02-21T01:47:57.326Z,32.78
2018-02-21T01:50:24.182Z,32.28
2018-02-21T01:52:51.033Z,30.85
2018-02-21T01:55:17.850Z,35.72
2018-02-21T01:57:44.649Z,34.72
2018-02-21T02:00:11.498Z,34.30
2018-02-21T02:02:38.336Z,34.17
2018-02-21T02:05:05.209Z,33.13
2018-02-21T02:07:32.066Z,37.25
2018-02-21T02:09:58.910Z,41.95
2018-02-21T02:12:25.710Z,35.63
2018-02-21T02:14:52.572Z,32.90
2018-02-21T02:17:19.414Z,37.22
2018-02-21T02:19:46.246Z,36.30
2018-02-21T02:22:13.066Z,33.22
2018-02-21T02:24:39.911Z,39.70
2018-02-21T02:27:06.758Z,33.20
2018-02-21T02:29:33.584Z,40.75
2018-02-21T02:32:01.163Z,39.95
2018-02-21T02:34:28.002Z,44.88
2018-02-21T02:36:54.840Z,45.33
2018-02-21T02:39:34.571Z,51.17
2018-02-21T02:42:02.150Z,44.22
2018-02-21T02:44:28.990Z,52.33
2018-02-21T02:46:55.802Z,45.80
2018-02-21T02:49:22.667Z,54.15
2018-02-21T02:51:49.490Z,50.80
2018-02-21T02:54:16.310Z,54.95
2018-02-21T02:56:43.154Z,57.33
2018-02-21T02:59:09.992Z,56.17
2018-02-21T03:01:36.825Z,60.70
2018-02-21T03:04:04.395Z,62.35
2018-02-21T03:06:31.255Z,50.88
2018-02-21T03:08:58.098Z,62.67
2018-02-21T03:11:24.950Z,61.10
2018-02-21T03:13:51.770Z,63.45
2018-02-21T03:16:18.601Z,63.10
2018-02-21T03:18:45.441Z,61.00
2018-02-21T03:21:12.249Z,58.25
2018-02-21T03:23:39.113Z,58.10
2018-02-21T03:26:05.969Z,54.65
2018-02-21T03:28:32.799Z,59.67
2018-02-21T03:30:59.642Z,58.67
2018-02-21T03:33:27.235Z,57.62
2018-02-21T03:35:54.062Z,59.22
2018-02-21T03:38:20.870Z,56.40
2018-02-21T03:40:48.470Z,60.88
2018-02-21T03:43:15.291Z,51.45
2018-02-21T03:45:42.850Z,53.10
2018-02-21T03:48:10.446Z,60.08
2018-02-21T03:50:37.268Z,56.80
2018-02-21T03:53:04.065Z,68.75
2018-02-21T03:55:30.917Z,51.95
2018-02-21T03:57:57.699Z,49.67
2018-02-21T04:00:24.550Z,49.50
2018-02-21T04:02:51.360Z,52.67
2018-02-21T04:05:18.919Z,46.85
2018-02-21T04:07:46.492Z,47.58
2018-02-21T04:10:14.074Z,50.20
2018-02-21T04:12:40.901Z,47.97
2018-02-21T04:15:07.759Z,52.17
2018-02-21T04:17:34.574Z,56.30
2018-02-21T04:20:01.427Z,47.47
2018-02-21T04:22:28.285Z,42.53
2018-02-21T04:24:55.110Z,47.85
2018-02-21T04:27:21.939Z,49.53
2018-02-21T04:29:48.794Z,51.65
2018-02-21T04:32:15.645Z,45.35
2018-02-21T04:34:43.183Z,47.45
2018-02-21T04:37:10.774Z,46.03
2018-02-21T04:39:37.606Z,41.83
2018-02-21T04:42:04.450Z,45.12
2018-02-21T04:44:31.310Z,44.80
2018-02-21T04:46:58.182Z,42.53
2018-02-21T04:49:25.022Z,41.08
2018-02-21T04:51:51.805Z,38.28
2018-02-21T04:54:20.646Z,44.85
2018-02-21T04:59:43.437Z,39.90
2018-02-21T05:02:11.082Z,40.00
2018-02-21T05:04:37.901Z,41.10
2018-02-21T05:07:04.792Z,38.78
2018-02-21T05:09:32.379Z,39.15
2018-02-21T05:11:59.199Z,43.65
2018-02-21T05:14:26.790Z,42.03
2018-02-21T05:16:53.607Z,40.58
2018-02-21T05:19:20.430Z,40.67
2018-02-21T05:21:48.011Z,41.45
2018-02-21T05:24:14.842Z,40.92
2018-02-21T05:26:42.410Z,31.58
2018-02-21T05:29:09.262Z,38.75
2018-02-21T05:31:36.086Z,37.15
2018-02-21T05:34:02.914Z,30.58
2018-02-21T05:36:30.559Z,38.65
2018-02-21T05:38:57.408Z,34.13
2018-02-21T05:41:24.244Z,40.65
2018-02-21T05:43:51.062Z,34.75
2018-02-21T05:46:17.901Z,34.88
2018-02-21T05:48:44.758Z,35.00
2018-02-21T05:51:11.599Z,37.75
2018-02-21T05:53:38.430Z,36.10
2018-02-21T05:56:05.373Z,36.65
2018-02-21T05:58:32.193Z,29.92
2018-02-21T06:00:59.022Z,32.38
2018-02-21T06:03:26.653Z,35.80
2018-02-21T06:05:53.795Z,34.10
2018-02-21T06:08:20.796Z,35.90
2018-02-21T06:10:47.799Z,44.97
2018-02-21T06:13:14.794Z,37.88
2018-02-21T06:15:41.813Z,44.17
2018-02-21T06:18:08.874Z,37.55
2018-02-21T06:20:35.874Z,42.28
2018-02-21T06:23:02.782Z,42.58
2018-02-21T06:25:30.450Z,41.50
2018-02-21T06:27:58.362Z,40.60
2018-02-21T06:30:25.322Z,37.25
2018-02-21T06:32:52.239Z,45.78
2018-02-21T06:35:19.102Z,47.78
2018-02-21T06:37:46.126Z,41.15
2018-02-21T06:40:12.987Z,51.03
2018-02-21T06:42:40.262Z,45.10
2018-02-21T06:45:10.237Z,52.88
2018-02-21T06:47:37.183Z,43.55
2018-02-21T06:50:04.242Z,43.63
2018-02-21T06:52:31.155Z,45.72
2018-02-21T06:54:59.006Z,42.95
2018-02-21T06:57:26.623Z,40.90
2018-02-21T06:59:53.698Z,49.22
2018-02-21T07:02:32.851Z,54.55
2018-02-21T07:04:59.759Z,43.92
2018-02-21T07:07:26.778Z,41.00
2018-02-21T07:09:53.740Z,39.72
2018-02-21T07:12:20.677Z,46.88
2018-02-21T07:14:47.570Z,44.53
2018-02-21T07:17:14.418Z,44.85
2018-02-21T07:19:41.521Z,44.35
2018-02-21T07:22:09.331Z,43.50
2018-02-21T07:24:36.278Z,45.17
2018-02-21T07:27:03.291Z,46.00
2018-02-21T07:29:30.381Z,50.78
2018-02-21T07:31:57.427Z,54.00
2018-02-21T07:34:24.274Z,50.63
2018-02-21T07:36:52.023Z,44.58
2018-02-21T07:39:19.027Z,50.90
2018-02-21T07:41:46.007Z,42.15
2018-02-21T07:44:13.153Z,51.50
2018-02-21T07:46:40.174Z,50.08
2018-02-21T07:49:07.911Z,45.55
2018-02-21T07:51:34.915Z,45.15
2018-02-21T07:54:02.013Z,39.58
2018-02-21T07:56:29.179Z,47.13
2018-02-21T07:58:56.117Z,41.08
2018-02-21T08:01:23.179Z,45.97
2018-02-21T08:03:50.990Z,50.35
2018-02-21T08:06:18.610Z,47.90
2018-02-21T08:08:45.534Z,44.67
2018-02-21T08:11:12.699Z,49.60
2018-02-21T08:13:39.717Z,49.72
2018-02-21T08:16:07.388Z,52.83
2018-02-21T08:18:34.282Z,43.58
2018-02-21T08:21:01.099Z,49.95
2018-02-21T08:23:27.925Z,52.03
2018-02-21T08:25:54.799Z,57.50
2018-02-21T08:28:21.693Z,56.22
2018-02-21T08:30:48.461Z,51.28
2018-02-21T08:33:15.341Z,56.17
2018-02-21T08:35:42.174Z,55.12
2018-02-21T08:38:08.997Z,51.97
2018-02-21T08:40:35.844Z,48.47
2018-02-21T08:43:03.478Z,52.62
2018-02-21T08:45:30.318Z,49.30
2018-02-21T08:47:57.162Z,50.47
2018-02-21T08:50:24.003Z,50.50
2018-02-21T08:52:51.594Z,43.58
2018-02-21T08:55:18.435Z,50.28
2018-02-21T08:57:45.266Z,49.45
2018-02-21T09:00:12.110Z,47.67
2018-02-21T09:02:38.930Z,44.17
2018-02-21T09:05:05.752Z,43.00
2018-02-21T09:07:33.343Z,48.00
2018-02-21T09:10:00.189Z,42.42
2018-02-21T09:12:27.012Z,41.15
2018-02-21T09:14:54.635Z,40.00
2018-02-21T09:17:21.467Z,39.33
2018-02-21T09:19:48.322Z,38.75
2018-02-21T09:22:15.114Z,36.20
2018-02-21T09:24:41.930Z,41.05
2018-02-21T09:27:08.922Z,34.20
2018-02-21T09:29:36.535Z,37.40
2018-02-21T09:32:04.098Z,31.02
2018-02-21T09:34:31.719Z,35.22
2018-02-21T09:36:58.806Z,31.05
2018-02-21T09:39:25.793Z,35.45
2018-02-21T09:41:53.418Z,36.35
2018-02-21T09:44:20.268Z,43.22
2018-02-21T09:46:47.151Z,37.25
2018-02-21T09:49:13.994Z,33.97
2018-02-21T09:51:40.835Z,38.70
2018-02-21T09:54:07.694Z,34.97
2018-02-21T09:56:34.526Z,37.97
2018-02-21T09:59:01.373Z,32.95
2018-02-21T10:01:28.218Z,31.33
2018-02-21T10:03:55.039Z,34.28
2018-02-21T10:06:24.057Z,38.15
2018-02-21T10:08:52.121Z,34.33
2018-02-21T10:11:19.746Z,33.67
2018-02-21T10:13:46.755Z,38.92
2018-02-21T10:16:13.633Z,33.80
2018-02-21T10:18:40.530Z,39.05
2018-02-21T10:21:07.374Z,35.20
2018-02-21T10:23:34.245Z,31.67
2018-02-21T10:26:01.290Z,32.88
2018-02-21T10:28:28.225Z,35.70
2018-02-21T10:30:55.966Z,36.50
2018-02-21T10:33:22.901Z,34.45
2018-02-21T10:35:49.878Z,32.13
2018-02-21T10:38:16.763Z,31.20
2018-02-21T10:40:43.578Z,41.25
2018-02-21T10:43:11.151Z,36.25
2018-02-21T10:45:39.020Z,36.47
2018-02-21T10:48:06.767Z,35.35
2018-02-21T10:50:34.487Z,43.67
2018-02-21T10:53:02.981Z,33.90
2018-02-21T10:55:30.845Z,36.15
2018-02-21T10:57:58.663Z,32.80
2018-02-21T11:00:33.521Z,36.97
2018-02-21T11:03:00.351Z,34.22
2018-02-21T11:05:27.314Z,31.58
2018-02-21T11:07:54.948Z,36.65
2018-02-21T11:10:21.819Z,34.20
2018-02-21T11:12:48.682Z,35.10
2018-02-21T11:15:15.721Z,35.83
2018-02-21T11:17:42.754Z,32.50
2018-02-21T11:20:09.850Z,33.95
2018-02-21T11:22:36.858Z,35.15
2018-02-21T11:25:03.734Z,35.05
2018-02-21T11:27:31.317Z,31.25
2018-02-21T11:29:58.129Z,33.17
2018-02-21T11:32:24.999Z,32.08
2018-02-21T11:34:51.822Z,34.67
2018-02-21T11:37:18.626Z,36.77
2018-02-21T11:39:45.538Z,31.10
2018-02-21T11:42:12.394Z,31.17
2018-02-21T11:44:39.378Z,35.20
2018-02-21T11:47:08.959Z,30.07
2018-02-21T11:49:36.100Z,30.80
2018-02-21T11:52:03.855Z,29.53
2018-02-21T11:54:31.492Z,29.73
2018-02-21T11:56:59.396Z,31.83
2018-02-21T11:59:26.926Z,38.30
2018-02-21T12:01:55.618Z,29.87
2018-02-21T12:04:22.546Z,32.57
2018-02-21T12:06:49.474Z,26.53
2018-02-21T12:09:16.502Z,29.23
2018-02-21T12:11:44.341Z,27.30
2018-02-21T12:14:12.809Z,28.30
2018-02-21T12:16:40.492Z,29.97
2018-02-21T12:19:09.691Z,31.70
2018-02-21T12:21:38.559Z,30.33
2018-02-21T12:24:06.214Z,34.57
2018-02-21T12:26:33.188Z,30.83
2018-02-21T12:29:02.086Z,32.83
2018-02-21T12:31:29.092Z,35.63
2018-02-21T12:33:58.592Z,35.13
2018-02-21T12:36:25.661Z,32.42
2018-02-21T12:38:58.694Z,30.08
2018-02-21T12:41:32.591Z,31.40
2018-02-21T12:44:00.534Z,38.80
2018-02-21T12:46:30.255Z,33.33
2018-02-21T12:48:57.888Z,33.83
2018-02-21T12:51:27.006Z,28.30
2018-02-21T12:53:55.295Z,35.38
2018-02-21T12:56:22.345Z,31.55
2018-02-21T12:58:50.154Z,28.95
2018-02-21T13:01:17.718Z,36.25
2018-02-21T13:03:44.539Z,33.90
2018-02-21T13:06:11.410Z,34.42
2018-02-21T13:08:38.242Z,39.88
2018-02-21T13:11:05.074Z,35.20
2018-02-21T13:13:32.674Z,39.78
2018-02-21T13:15:59.489Z,38.90
2018-02-21T13:18:26.378Z,31.58
2018-02-21T13:20:53.179Z,33.92
2018-02-21T13:23:20.014Z,30.45
2018-02-21T13:25:47.618Z,35.60
2018-02-21T13:28:14.448Z,37.85
2018-02-21T13:30:41.329Z,33.10
2018-02-21T13:33:08.182Z,30.70
2018-02-21T13:35:35.823Z,29.85
2018-02-21T13:38:02.677Z,39.40
2018-02-21T13:40:29.495Z,35.58
2018-02-21T13:42:56.343Z,35.80
2018-02-21T13:45:23.174Z,39.17
2018-02-21T13:47:50.018Z,35.85
2018-02-21T13:50:16.895Z,33.80
2018-02-21T13:52:43.739Z,35.03
2018-02-21T13:55:11.326Z,33.40
2018-02-21T13:57:38.173Z,30.58
2018-02-21T14:00:05.786Z,33.80
2018-02-21T14:02:32.614Z,34.13
2018-02-21T14:04:59.453Z,37.15
2018-02-21T14:07:26.296Z,32.65
2018-02-21T14:09:53.164Z,38.33
2018-02-21T14:12:19.998Z,35.65
2018-02-21T14:14:46.854Z,35.05
2018-02-21T14:17:14.007Z,31.75
2018-02-21T14:19:40.859Z,31.05
2018-02-21T14:22:08.435Z,30.40
2018-02-21T14:24:36.027Z,35.17
2018-02-21T14:27:02.891Z,33.42
2018-02-21T14:29:29.756Z,34.70
2018-02-21T14:31:56.585Z,35.30
2018-02-21T14:34:23.438Z,33.67
2018-02-21T14:36:51.058Z,37.53
2018-02-21T14:39:17.943Z,31.45
2018-02-21T14:41:44.802Z,39.88
2018-02-21T14:44:11.631Z,34.35
2018-02-21T14:46:38.466Z,33.90
2018-02-21T14:49:05.300Z,34.90
2018-02-21T14:51:32.135Z,34.92
2018-02-21T14:53:58.961Z,35.00
2018-02-21T14:56:25.833Z,35.35
2018-02-21T14:58:52.672Z,34.75
2018-02-21T15:01:19.506Z,29.55
2018-02-21T15:03:47.126Z,34.70
2018-02-21T15:06:13.998Z,40.33
2018-02-21T15:08:40.855Z,37.63
2018-02-21T15:11:07.678Z,36.10
2018-02-21T15:13:34.518Z,35.58
2018-02-21T15:16:01.367Z,36.42
2018-02-21T15:18:28.190Z,40.85
2018-02-21T15:20:55.014Z,38.95
2018-02-21T15:23:21.896Z,40.40
2018-02-21T15:25:48.734Z,39.85
2018-02-21T15:28:15.608Z,39.65
2018-02-21T15:30:42.431Z,49.88
2018-02-21T15:33:09.259Z,38.83
2018-02-21T15:35:36.102Z,43.30
2018-02-21T15:38:03.660Z,44.90
2018-02-21T15:40:30.481Z,41.28
2018-02-21T15:42:58.070Z,40.92
2018-02-21T15:45:24.895Z,48.20
2018-02-21T15:47:51.779Z,46.80
2018-02-21T15:50:18.634Z,46.05
2018-02-21T15:52:45.507Z,40.95
2018-02-21T15:55:12.518Z,44.78
2018-02-21T15:57:39.416Z,46.53
2018-02-21T16:00:06.264Z,47.97
2018-02-21T16:02:33.106Z,46.22
2018-02-21T16:04:59.946Z,48.78
2018-02-21T16:07:26.750Z,41.42
2018-02-21T16:09:53.799Z,39.42
2018-02-21T16:12:20.743Z,42.75
2018-02-21T16:14:47.782Z,49.40
2018-02-21T16:17:14.814Z,46.47
2018-02-21T16:19:42.538Z,40.40
2018-02-21T16:22:10.355Z,47.30
2018-02-21T16:24:37.357Z,48.92
2018-02-21T16:27:04.426Z,44.88
2018-02-21T16:29:31.533Z,47.97
2018-02-21T16:31:58.431Z,53.20
2018-02-21T16:34:26.106Z,47.15
2018-02-21T16:36:53.022Z,51.15
2018-02-21T16:39:19.867Z,52.38
2018-02-21T16:41:46.706Z,57.47
2018-02-21T16:44:14.344Z,60.80
2018-02-21T16:46:42.183Z,49.70
2018-02-21T16:49:09.254Z,48.72
2018-02-21T16:51:36.974Z,51.60
2018-02-21T16:54:09.903Z,56.72
2018-02-21T16:56:36.922Z,56.65
2018-02-21T16:59:03.885Z,53.15
2018-02-21T17:01:31.480Z,55.22
2018-02-21T17:03:58.302Z,52.22
2018-02-21T17:06:25.142Z,55.35
2018-02-21T17:08:52.019Z,54.95
2018-02-21T17:11:18.858Z,63.75
2018-02-21T17:13:45.703Z,62.42
2018-02-21T17:16:12.582Z,59.88
2018-02-21T17:18:39.406Z,59.08
2018-02-21T17:21:06.261Z,62.35
2018-02-21T17:23:33.834Z,62.72
2018-02-21T17:26:00.734Z,69.15
2018-02-21T17:28:27.566Z,67.00
2018-02-21T17:30:54.382Z,54.47
2018-02-21T17:33:21.926Z,58.30
2018-02-21T17:35:49.566Z,59.88
2018-02-21T17:38:17.178Z,65.87
2018-02-21T17:40:50.254Z,65.10
2018-02-21T17:43:17.092Z,72.25
2018-02-21T17:45:43.934Z,65.10
2018-02-21T17:48:10.787Z,55.85
2018-02-21T17:50:38.334Z,58.25
2018-02-21T17:53:06.077Z,63.35
2018-02-21T17:55:33.014Z,57.13
2018-02-21T17:57:59.810Z,58.38
2018-02-21T18:00:26.663Z,60.00
2018-02-21T18:02:53.514Z,57.28
2018-02-21T18:05:20.386Z,59.13
2018-02-21T18:07:47.181Z,57.58
2018-02-21T18:10:13.970Z,61.05
2018-02-21T18:12:41.573Z,66.37
2018-02-21T18:15:08.442Z,61.10
2018-02-21T18:17:35.274Z,54.35
2018-02-21T18:20:02.288Z,53.95
2018-02-21T18:22:29.138Z,58.42
2018-02-21T18:24:56.028Z,61.25
2018-02-21T18:27:22.874Z,62.70
2018-02-21T18:29:49.871Z,62.08
2018-02-21T18:32:16.881Z,62.80
2018-02-21T18:34:43.790Z,62.83
2018-02-21T18:37:10.698Z,67.87
2018-02-21T18:39:37.573Z,63.65
2018-02-21T18:42:04.457Z,58.33
2018-02-21T18:44:32.239Z,65.25
2018-02-21T18:46:59.866Z,61.72
2018-02-21T18:49:26.738Z,62.70
2018-02-21T18:51:54.323Z,72.12
2018-02-21T18:54:21.174Z,65.97
2018-02-21T18:56:49.123Z,60.80
2018-02-21T18:59:16.078Z,60.05
2018-02-21T19:01:42.989Z,62.67
2018-02-21T19:04:10.761Z,63.03
2018-02-21T19:06:37.914Z,57.42
2018-02-21T19:09:07.200Z,63.35
2018-02-21T19:11:34.782Z,69.85
2018-02-21T19:14:02.333Z,74.30
2018-02-21T19:16:30.019Z,62.72
2018-02-21T19:18:56.846Z,70.75
2018-02-21T19:21:23.727Z,62.60
2018-02-21T19:23:50.571Z,61.58
2018-02-21T19:26:19.474Z,60.80
2018-02-21T19:28:46.319Z,59.45
2018-02-21T19:31:13.443Z,63.20
2018-02-21T19:33:40.295Z,56.17
2018-02-21T19:36:07.158Z,67.10
2018-02-21T19:38:34.041Z,59.72
2018-02-21T19:41:01.686Z,66.37
2018-02-21T19:43:28.498Z,64.60
2018-02-21T19:45:55.657Z,59.72
2018-02-21T19:48:22.729Z,62.88
2018-02-21T19:50:49.711Z,60.15
2018-02-21T19:53:17.559Z,67.62
2018-02-21T19:55:44.814Z,58.90
2018-02-21T19:58:11.841Z,65.53
2018-02-21T20:00:38.853Z,69.05
2018-02-21T20:03:06.693Z,60.72
2018-02-21T20:05:33.954Z,59.38
2018-02-21T20:08:00.842Z,67.05
2018-02-21T20:10:28.462Z,60.53
2018-02-21T20:12:55.716Z,70.28
2018-02-21T20:15:22.911Z,66.35
2018-02-21T20:17:49.945Z,74.32
2018-02-21T20:20:16.962Z,64.20
2018-02-21T20:22:44.643Z,61.45
2018-02-21T20:25:11.668Z,71.72
2018-02-21T20:27:38.650Z,67.35
2018-02-21T20:30:05.561Z,68.43
2018-02-21T20:32:32.396Z,65.05
2018-02-21T20:34:59.286Z,73.10
2018-02-21T20:37:26.142Z,74.78
2018-02-21T20:39:53.705Z,71.28
2018-02-21T20:42:20.563Z,70.18
2018-02-21T20:44:47.650Z,66.07
2018-02-21T20:47:14.686Z,71.95
2018-02-21T20:49:41.918Z,69.95
2018-02-21T20:52:09.219Z,70.57
2018-02-21T20:54:36.138Z,71.90
2018-02-21T20:57:03.314Z,65.72
2018-02-21T20:59:30.574Z,76.20
2018-02-21T21:01:57.440Z,82.15
2018-02-21T21:04:40.945Z,73.35
2018-02-21T21:07:09.679Z,64.90
2018-02-21T21:09:40.020Z,62.15
2018-02-21T21:12:08.094Z,71.35
2018-02-21T21:14:35.170Z,66.65
2018-02-21T21:17:02.246Z,67.45
2018-02-21T21:19:29.231Z,68.70
2018-02-21T21:21:56.506Z,74.75
2018-02-21T21:24:23.434Z,70.78
2018-02-21T21:26:50.298Z,74.87
2018-02-21T21:29:19.064Z,77.07
2018-02-21T21:31:46.266Z,71.18
2018-02-21T21:34:15.174Z,68.90
2018-02-21T21:36:43.119Z,68.68
2018-02-21T21:39:11.977Z,64.43
2018-02-21T21:41:38.887Z,67.53
2018-02-21T21:44:05.870Z,76.40
2018-02-21T21:46:33.662Z,79.75
2018-02-21T21:49:00.487Z,73.50
2018-02-21T21:51:27.313Z,78.35
2018-02-21T21:53:54.146Z,74.62
2018-02-21T21:56:21.010Z,80.15
2018-02-21T21:58:47.822Z,77.30
2018-02-21T22:01:14.715Z,75.35
2018-02-21T22:03:41.571Z,67.07
2018-02-21T22:06:09.206Z,74.47
2018-02-21T22:08:36.059Z,75.45
2018-02-21T22:11:04.039Z,74.50
2018-02-21T22:13:31.061Z,74.45
2018-02-21T22:15:58.094Z,72.70
2018-02-21T22:18:25.802Z,84.95
2018-02-21T22:20:54.088Z,76.03
2018-02-21T22:23:20.904Z,70.03
2018-02-21T22:25:47.850Z,68.85
2018-02-21T22:28:14.982Z,73.87
2018-02-21T22:30:41.836Z,78.20
2018-02-21T22:33:08.809Z,87.35
2018-02-21T22:35:35.746Z,77.87
2018-02-21T22:38:02.580Z,67.40
2018-02-21T22:40:29.414Z,84.32
2018-02-21T22:42:56.275Z,84.05
2018-02-21T22:45:23.191Z,66.05
2018-02-21T22:47:50.022Z,81.12
2018-02-21T22:50:16.845Z,76.40
2018-02-21T22:52:43.686Z,82.68
2018-02-21T22:55:10.562Z,79.90
2018-02-21T22:57:37.406Z,78.87
2018-02-21T23:00:04.274Z,73.72
2018-02-21T23:02:31.845Z,82.88
2018-02-21T23:04:59.502Z,76.03
2018-02-21T23:07:27.118Z,77.00
2018-02-21T23:09:53.934Z,81.25
2018-02-21T23:12:21.473Z,79.40
2018-02-21T23:14:48.354Z,83.05
2018-02-21T23:17:15.193Z,74.20
2018-02-21T23:19:42.035Z,77.25
2018-02-21T23:22:08.918Z,89.72
2018-02-21T23:24:35.755Z,82.25
2018-02-21T23:27:02.585Z,85.55
2018-02-21T23:29:29.433Z,82.78
2018-02-21T23:31:56.255Z,81.93
2018-02-21T23:34:23.088Z,81.63
2018-02-21T23:36:49.949Z,80.25
2018-02-21T23:39:16.773Z,77.10
2018-02-21T23:41:43.633Z,78.25
2018-02-21T23:44:10.469Z,92.88
2018-02-21T23:46:38.361Z,78.05
2018-02-21T23:49:05.221Z,78.75
2018-02-21T23:51:32.802Z,91.18
2018-02-21T23:53:59.607Z,72.70
2018-02-21T23:56:26.470Z,88.80
2018-02-21T23:58:54.030Z,85.10
